Time;durP1;ratioP1;P1;durP2;ratioP2;P2;SDS_P1;SDS_P2;PMS_P1;PMS_P2;Temp;Humidity;BMP_temperature;BMP_pressure;BME280_temperature;BME280_humidity;BME280_pressure;Samples;Min_cycle;Max_cycle;Signal;HPM_P1;HPM_P2
2023/07/31 00:01:11;;;;;;;3.60;1.90;;;;;;;15.86;100.00;96810.13;5035803;28;20258;-62
2023/07/31 00:03:38;;;;;;;3.78;2.15;;;;;;;15.83;100.00;96811.28;5055062;28;20217;-61
2023/07/31 00:06:05;;;;;;;3.88;2.20;;;;;;;15.84;100.00;96817.44;5038720;28;20233;-61
2023/07/31 00:08:32;;;;;;;3.50;2.35;;;;;;;15.77;100.00;96805.78;5035715;28;20204;-62
2023/07/31 00:10:58;;;;;;;3.67;1.88;;;;;;;15.75;100.00;96800.66;5036042;28;20216;-61
2023/07/31 00:13:28;;;;;;;5.53;2.08;;;;;;;15.74;100.00;96806.97;5035635;28;20226;-62
2023/07/31 00:15:55;;;;;;;3.15;2.33;;;;;;;15.78;100.00;96796.78;5049108;28;20234;-61
2023/07/31 00:18:21;;;;;;;3.50;2.10;;;;;;;15.75;100.00;96803.31;5043196;28;20207;-62
2023/07/31 00:20:48;;;;;;;2.53;2.30;;;;;;;15.77;100.00;96795.13;5044202;28;20203;-61
2023/07/31 00:23:15;;;;;;;6.45;2.40;;;;;;;15.75;100.00;96792.66;5037041;28;20220;-61
2023/07/31 00:25:42;;;;;;;3.75;2.20;;;;;;;15.76;100.00;96801.47;5035919;28;20247;-60
2023/07/31 00:28:08;;;;;;;3.28;2.38;;;;;;;15.79;100.00;96807.31;5035027;28;20562;-61
2023/07/31 00:30:36;;;;;;;2.22;2.03;;;;;;;15.80;100.00;96803.63;5035367;28;20204;-61
2023/07/31 00:33:03;;;;;;;2.88;1.83;;;;;;;15.84;100.00;96812.94;5035404;28;20212;-61
2023/07/31 00:35:31;;;;;;;3.92;2.33;;;;;;;15.81;100.00;96807.13;5035251;28;20246;-61
2023/07/31 00:38:00;;;;;;;2.30;2.10;;;;;;;15.81;100.00;96802.63;5040264;28;20204;-60
2023/07/31 00:40:26;;;;;;;5.15;2.28;;;;;;;15.73;100.00;96802.63;5035413;28;20227;-61
2023/07/31 00:42:53;;;;;;;3.25;2.15;;;;;;;15.79;100.00;96795.81;5034775;28;20211;-61
2023/07/31 00:45:20;;;;;;;2.53;2.13;;;;;;;15.80;100.00;96803.63;5034888;28;20706;-61
2023/07/31 00:47:48;;;;;;;3.60;2.20;;;;;;;15.79;100.00;96801.13;5034303;28;20269;-60
2023/07/31 00:50:14;;;;;;;5.75;2.03;;;;;;;15.81;100.00;96786.63;5034594;28;20265;-61
2023/07/31 00:52:41;;;;;;;4.65;2.30;;;;;;;15.80;100.00;96782.28;5034488;28;20237;-60
2023/07/31 00:55:08;;;;;;;3.38;2.20;;;;;;;15.83;100.00;96787.28;5034661;28;20557;-61
2023/07/31 00:57:35;;;;;;;3.33;1.92;;;;;;;15.83;100.00;96789.97;5033974;28;20246;-61
2023/07/31 01:00:03;;;;;;;1.73;1.60;;;;;;;15.85;100.00;96787.09;5033171;28;20668;-62
2023/07/31 01:02:33;;;;;;;2.28;1.75;;;;;;;15.77;100.00;96792.47;5034725;28;20611;-61
2023/07/31 01:05:02;;;;;;;3.17;2.20;;;;;;;15.79;100.00;96796.63;5034827;28;20207;-60
2023/07/31 01:07:48;;;;;;;3.20;2.10;;;;;;;15.71;100.00;96787.81;5036800;28;20207;-61
2023/07/31 01:10:18;;;;;;;3.75;2.10;;;;;;;15.62;100.00;96787.03;5043853;28;20228;-61
2023/07/31 01:12:46;;;;;;;3.10;1.83;;;;;;;15.63;100.00;96777.16;5034476;28;20214;-61
2023/07/31 01:15:14;;;;;;;3.75;2.05;;;;;;;15.58;100.00;96785.69;5046732;28;20229;-61
2023/07/31 01:17:41;;;;;;;5.95;2.00;;;;;;;15.46;100.00;96781.69;5042752;28;20299;-61
2023/07/31 01:20:13;;;;;;;3.00;2.63;;;;;;;15.52;100.00;96775.69;5040733;28;20675;-60
2023/07/31 01:23:07;;;;;;;4.03;2.13;;;;;;;15.51;100.00;96768.72;5034294;28;20203;-61
2023/07/31 01:25:59;;;;;;;2.58;2.25;;;;;;;15.56;100.00;96773.53;5034152;28;20613;-61
2023/07/31 01:28:32;;;;;;;3.13;2.05;;;;;;;15.51;100.00;96774.06;5033391;28;20640;-61
2023/07/31 01:31:01;;;;;;;4.43;2.00;;;;;;;15.50;100.00;96776.88;5033816;28;20641;-61
2023/07/31 01:33:28;;;;;;;3.20;1.88;;;;;;;15.48;100.00;96766.34;5034571;28;20208;-60
2023/07/31 01:35:56;;;;;;;3.42;1.95;;;;;;;15.43;100.00;96769.53;5036927;28;20266;-60
2023/07/31 01:38:23;;;;;;;2.78;1.88;;;;;;;15.43;100.00;96774.03;5036597;28;20258;-60
2023/07/31 01:40:52;;;;;;;7.95;2.35;;;;;;;15.40;100.00;96767.22;5034936;28;20231;-61
2023/07/31 01:43:21;;;;;;;1.85;1.75;;;;;;;15.34;100.00;96761.72;5034357;28;20212;-61
2023/07/31 01:45:49;;;;;;;1.80;1.70;;;;;;;15.37;100.00;96759.53;5034674;28;20208;-62
2023/07/31 01:48:15;;;;;;;6.07;2.22;;;;;;;15.35;100.00;96755.38;5034361;28;20262;-61
2023/07/31 01:50:42;;;;;;;2.63;2.10;;;;;;;15.29;100.00;96753.41;5034515;28;20208;-61
2023/07/31 01:53:08;;;;;;;4.47;2.45;;;;;;;15.28;100.00;96749.06;5035915;28;20546;-61
2023/07/31 01:55:36;;;;;;;6.93;1.98;;;;;;;15.21;100.00;96742.75;5056785;28;20203;-63
2023/07/31 01:58:03;;;;;;;3.67;1.85;;;;;;;15.23;100.00;96746.09;5056633;28;20211;-62
2023/07/31 02:00:29;;;;;;;4.53;2.00;;;;;;;15.12;100.00;96746.44;5049659;28;20231;-61
2023/07/31 02:02:57;;;;;;;4.45;2.00;;;;;;;15.08;100.00;96739.78;5035498;28;20549;-61
2023/07/31 02:05:24;;;;;;;2.47;2.00;;;;;;;15.12;100.00;96739.28;5034584;28;20241;-61
2023/07/31 02:07:50;;;;;;;2.33;2.05;;;;;;;15.05;100.00;96734.81;5034376;28;20552;-62
2023/07/31 02:10:16;;;;;;;4.32;2.00;;;;;;;15.02;100.00;96729.81;5035054;28;20282;-61
2023/07/31 02:12:43;;;;;;;3.90;2.47;;;;;;;14.97;100.00;96730.31;5037469;28;20307;-60
2023/07/31 02:15:10;;;;;;;3.63;2.30;;;;;;;14.97;100.00;96724.16;5038055;28;20211;-62
2023/07/31 02:17:37;;;;;;;3.92;2.13;;;;;;;14.97;100.00;96713.50;5045178;28;20211;-59
2023/07/31 02:20:09;;;;;;;3.72;2.42;;;;;;;14.95;100.00;96719.81;5044300;28;20238;-62
2023/07/31 02:22:35;;;;;;;4.85;2.17;;;;;;;14.91;100.00;96718.50;5051350;28;20204;-61
2023/07/31 02:25:03;;;;;;;3.08;2.10;;;;;;;14.89;100.00;96717.84;5039245;28;20239;-61
2023/07/31 02:27:30;;;;;;;4.35;2.60;;;;;;;14.91;100.00;96717.69;5037291;28;20215;-60
2023/07/31 02:29:59;;;;;;;3.03;1.70;;;;;;;14.87;100.00;96711.88;5037729;28;20204;-62
2023/07/31 02:32:25;;;;;;;3.60;2.67;;;;;;;14.87;100.00;96706.53;5037640;28;20285;-62
2023/07/31 02:34:52;;;;;;;4.88;2.60;;;;;;;14.89;100.00;96714.34;5037275;28;20656;-62
2023/07/31 02:37:19;;;;;;;2.40;1.87;;;;;;;14.85;100.00;96718.31;5042792;28;20204;-61
2023/07/31 02:39:49;;;;;;;3.28;2.10;;;;;;;14.82;100.00;96724.84;5037738;28;20594;-62
2023/07/31 02:42:15;;;;;;;4.72;1.80;;;;;;;14.84;100.00;96722.00;5037081;28;20219;-61
2023/07/31 02:44:42;;;;;;;4.40;2.35;;;;;;;14.82;100.00;96719.50;5037553;28;20657;-61
2023/07/31 02:47:08;;;;;;;2.17;2.00;;;;;;;14.86;100.00;96718.19;5038050;28;20290;-61
2023/07/31 02:49:37;;;;;;;2.75;2.25;;;;;;;14.84;100.00;96716.69;5037520;28;20215;-61
2023/07/31 02:52:04;;;;;;;2.05;1.85;;;;;;;14.84;100.00;96716.69;5037310;28;20522;-60
2023/07/31 02:54:32;;;;;;;3.83;1.95;;;;;;;14.80;100.00;96718.84;5037247;28;20212;-61
2023/07/31 02:56:59;;;;;;;2.67;2.25;;;;;;;14.73;100.00;96715.19;5036882;28;20212;-61
2023/07/31 02:59:26;;;;;;;2.63;1.90;;;;;;;14.74;100.00;96718.66;5036839;28;20695;-61
2023/07/31 03:01:52;;;;;;;2.00;1.90;;;;;;;14.80;100.00;96712.69;5037190;28;20640;-61
2023/07/31 03:04:19;;;;;;;3.10;2.08;;;;;;;14.76;100.00;96706.88;5037145;28;20512;-61
2023/07/31 03:06:46;;;;;;;2.73;2.23;;;;;;;14.71;100.00;96708.34;5037010;28;20208;-60
2023/07/31 03:09:13;;;;;;;4.00;2.15;;;;;;;14.71;100.00;96713.69;5037101;28;20223;-60
2023/07/31 03:11:41;;;;;;;3.50;2.10;;;;;;;14.68;100.00;96719.34;5036612;28;20208;-62
2023/07/31 03:14:07;;;;;;;3.33;2.00;;;;;;;14.66;100.00;96724.84;5036707;28;20691;-61
2023/07/31 03:16:34;;;;;;;2.65;1.98;;;;;;;14.64;100.00;96721.50;5041022;28;20207;-60
2023/07/31 03:19:01;;;;;;;2.58;1.90;;;;;;;14.62;100.00;96718.19;5043223;28;20206;-60
2023/07/31 03:21:30;;;;;;;4.28;2.20;;;;;;;14.61;100.00;96721.84;5045638;28;20303;-63
2023/07/31 03:23:56;;;;;;;2.72;2.10;;;;;;;14.57;100.00;96720.50;5037459;28;20543;-61
2023/07/31 03:26:22;;;;;;;3.22;2.00;;;;;;;14.55;100.00;96717.19;5035605;28;20239;-61
2023/07/31 03:28:50;;;;;;;2.58;2.00;;;;;;;14.54;100.00;96720.84;5050054;28;20211;-60
2023/07/31 03:31:17;;;;;;;2.22;2.00;;;;;;;14.52;100.00;96720.19;5036838;28;20208;-60
2023/07/31 03:33:43;;;;;;;4.07;2.35;;;;;;;14.53;100.00;96716.50;5041815;28;20218;-62
2023/07/31 03:36:09;;;;;;;3.40;2.38;;;;;;;14.56;100.00;96718.03;5055942;28;20567;-61
2023/07/31 03:38:37;;;;;;;3.07;2.40;;;;;;;14.57;100.00;96720.50;5051100;28;20649;-62
2023/07/31 03:41:06;;;;;;;3.87;2.00;;;;;;;14.62;100.00;96722.69;5036453;28;20668;-62
2023/07/31 03:43:37;;;;;;;4.77;2.30;;;;;;;14.67;100.00;96726.50;5049446;28;20204;-61
2023/07/31 03:46:07;;;;;;;2.97;2.70;;;;;;;14.66;100.00;96730.16;5036219;28;20641;-61
2023/07/31 03:48:33;;;;;;;3.42;2.80;;;;;;;14.62;100.00;96742.16;5043287;28;20203;-61
2023/07/31 03:51:00;;;;;;;4.60;2.30;;;;;;;14.66;100.00;96734.66;5042543;28;20518;-61
2023/07/31 03:53:29;;;;;;;3.22;2.67;;;;;;;14.68;100.00;96743.28;5036348;28;20211;-61
2023/07/31 03:55:56;;;;;;;3.78;2.33;;;;;;;14.67;100.00;96744.28;5036160;28;20203;-61
2023/07/31 03:58:22;;;;;;;2.50;2.30;;;;;;;14.67;100.00;96747.78;5035610;28;20207;-61
2023/07/31 04:00:49;;;;;;;2.50;2.20;;;;;;;14.68;100.00;96749.47;5035895;28;20703;-61
2023/07/31 04:03:16;;;;;;;2.03;1.92;;;;;;;14.70;100.00;96739.47;5048696;28;20222;-61
2023/07/31 04:05:43;;;;;;;3.90;2.30;;;;;;;14.70;100.00;96742.13;5035446;28;20299;-61
2023/07/31 04:08:09;;;;;;;4.47;2.17;;;;;;;14.71;100.00;96749.13;5035333;28;20218;-61
2023/07/31 04:10:36;;;;;;;3.65;2.20;;;;;;;14.80;100.00;96755.28;5035037;28;20214;-62
2023/07/31 04:13:02;;;;;;;2.75;2.05;;;;;;;14.80;100.00;96755.28;5034461;28;20636;-60
2023/07/31 04:15:28;;;;;;;2.38;2.05;;;;;;;14.78;100.00;96759.94;5035024;28;20219;-61
2023/07/31 04:17:55;;;;;;;4.80;2.30;;;;;;;14.76;100.00;96757.44;5042879;28;20222;-61
2023/07/31 04:20:23;;;;;;;3.72;2.25;;;;;;;14.73;100.00;96756.94;5043413;28;20219;-61
2023/07/31 04:22:50;;;;;;;4.03;2.83;;;;;;;14.78;100.00;96758.09;5035626;28;20211;-61
2023/07/31 04:25:16;;;;;;;3.40;3.08;;;;;;;14.76;100.00;96754.78;5036892;28;20251;-61
2023/07/31 04:27:43;;;;;;;3.92;2.80;;;;;;;14.73;100.00;96760.44;5034986;28;20208;-61
2023/07/31 04:30:10;;;;;;;3.92;2.38;;;;;;;14.78;100.00;96755.44;5035063;28;20204;-60
2023/07/31 04:32:36;;;;;;;5.60;2.10;;;;;;;14.76;100.00;96751.28;5035596;28;20212;-61
2023/07/31 04:35:03;;;;;;;2.75;2.35;;;;;;;14.75;100.00;96761.09;5034642;28;20214;-62
2023/07/31 04:37:31;;;;;;;3.15;1.92;;;;;;;14.80;100.00;96752.63;5040595;28;20204;-61
2023/07/31 04:39:57;;;;;;;3.17;2.25;;;;;;;14.82;100.00;96763.94;5034524;28;20564;-63
2023/07/31 04:42:24;;;;;;;2.33;2.13;;;;;;;14.85;100.00;96759.09;5034429;28;20208;-62
2023/07/31 04:44:50;;;;;;;2.95;2.25;;;;;;;14.90;100.00;96762.13;5034391;28;20686;-62
2023/07/31 04:47:17;;;;;;;2.83;2.30;;;;;;;14.97;100.00;96756.09;5034664;28;20219;-60
2023/07/31 04:49:43;;;;;;;3.70;2.40;;;;;;;14.97;100.00;96756.94;5038975;28;20207;-61
2023/07/31 04:52:09;;;;;;;4.40;2.20;;;;;;;15.02;100.00;96756.44;5044331;28;20212;-61
2023/07/31 04:54:40;;;;;;;4.43;2.30;;;;;;;15.01;100.00;96760.09;5035111;28;20552;-62
2023/07/31 04:57:07;;;;;;;4.35;2.50;;;;;;;15.05;100.00;96750.78;5034939;28;20222;-62
2023/07/31 04:59:33;;;;;;;5.78;2.65;;;;;;;15.06;100.00;96747.94;5035391;28;20215;-60
2023/07/31 05:01:59;;;;;;;3.08;2.13;;;;;;;15.07;100.00;96746.09;5046819;28;20231;-62
2023/07/31 05:04:26;;;;;;;3.17;2.63;;;;;;;15.12;100.00;96743.78;5038519;28;20214;-61
2023/07/31 05:06:52;;;;;;;3.85;2.50;;;;;;;15.13;100.00;96742.75;5034937;28;20215;-61
2023/07/31 05:09:19;;;;;;;4.65;2.38;;;;;;;15.21;100.00;96740.09;5039652;28;20226;-61
2023/07/31 05:11:46;;;;;;;4.85;2.35;;;;;;;15.27;100.00;96739.41;5043605;28;20200;-62
2023/07/31 05:14:14;;;;;;;5.50;2.70;;;;;;;15.35;100.00;96742.06;5035438;28;20208;-61
2023/07/31 05:16:40;;;;;;;2.53;2.30;;;;;;;15.37;100.00;96740.09;5039836;28;20227;-60
2023/07/31 05:19:07;;;;;;;3.45;2.45;;;;;;;15.42;100.00;96754.53;5036557;28;20222;-62
2023/07/31 05:21:33;;;;;;;4.60;2.47;;;;;;;15.50;100.00;96743.06;5042319;28;20230;-61
2023/07/31 05:24:00;;;;;;;3.40;2.40;;;;;;;15.54;100.00;96736.41;5036431;28;20207;-61
2023/07/31 05:26:26;;;;;;;3.53;2.53;;;;;;;15.62;100.00;96744.38;5033711;28;20239;-62
2023/07/31 05:28:54;;;;;;;3.33;2.22;;;;;;;15.68;100.00;96749.00;5047723;28;20213;-61
2023/07/31 05:31:22;;;;;;;3.80;2.72;;;;;;;15.68;100.00;96743.69;5046845;28;20202;-60
2023/07/31 05:33:49;;;;;;;4.05;2.20;;;;;;;15.70;100.00;96740.81;5034773;28;20295;-62
2023/07/31 05:36:16;;;;;;;3.17;2.40;;;;;;;15.74;100.00;96747.47;5034020;28;20211;-62
2023/07/31 05:38:44;;;;;;;3.35;3.00;;;;;;;15.81;100.00;96754.63;5033730;28;20222;-61
2023/07/31 05:41:10;;;;;;;2.40;2.20;;;;;;;15.82;100.00;96755.47;5033622;28;20232;-61
2023/07/31 05:43:36;;;;;;;4.32;2.70;;;;;;;15.89;100.00;96764.44;5036966;28;20290;-61
2023/07/31 05:46:04;;;;;;;4.63;2.88;;;;;;;15.92;100.00;96762.25;5035597;28;20672;-61
2023/07/31 05:48:31;;;;;;;2.83;2.42;;;;;;;16.00;100.00;96773.88;5038024;28;20235;-62
2023/07/31 05:50:57;;;;;;;4.10;2.53;;;;;;;16.05;100.00;96771.53;5038401;28;20215;-62
2023/07/31 05:53:24;;;;;;;4.43;2.85;;;;;;;16.09;100.00;96773.66;5037081;28;20212;-61
2023/07/31 05:55:50;;;;;;;3.45;2.70;;;;;;;16.13;100.00;96764.31;5038789;28;20273;-60
2023/07/31 05:58:17;;;;;;;4.05;2.60;;;;;;;16.17;100.00;96762.13;5037853;28;20226;-60
2023/07/31 06:00:44;;;;;;;4.13;2.60;;;;;;;16.22;100.00;96759.78;5038052;28;20238;-60
2023/07/31 06:03:11;;;;;;;3.17;2.60;;;;;;;16.26;100.00;96758.44;5038325;28;20208;-61
2023/07/31 06:05:38;;;;;;;3.28;2.97;;;;;;;16.24;100.00;96749.75;5037685;28;20215;-61
2023/07/31 06:08:04;;;;;;;4.18;2.90;;;;;;;16.29;100.00;96752.72;5037603;28;20207;-61
2023/07/31 06:10:31;;;;;;;4.57;2.22;;;;;;;16.32;100.00;96752.38;5037949;28;20289;-60
2023/07/31 06:12:58;;;;;;;6.63;2.72;;;;;;;16.31;100.00;96754.22;5047375;28;20203;-61
2023/07/31 06:15:25;;;;;;;4.22;2.70;;;;;;;16.31;100.00;96762.22;5080651;28;20267;-63
2023/07/31 06:17:52;;;;;;;3.00;2.40;;;;;;;16.37;100.00;96755.34;5075778;28;20194;-61
2023/07/31 06:20:20;;;;;;;2.97;2.50;;;;;;;16.44;100.00;96740.28;5061117;28;20206;-62
2023/07/31 06:22:47;;;;;;;3.15;2.60;;;;;;;16.50;100.00;96738.75;5037913;28;20303;-61
2023/07/31 06:25:14;;;;;;;3.42;2.65;;;;;;;16.50;100.00;96739.59;5039265;28;20243;-60
2023/07/31 06:27:41;;;;;;;3.03;2.33;;;;;;;16.59;100.00;96738.53;5037332;28;20208;-61
2023/07/31 06:30:08;;;;;;;3.05;2.22;;;;;;;16.64;100.00;96730.00;5051218;28;20305;-60
2023/07/31 06:32:35;;;;;;;5.35;2.67;;;;;;;16.68;100.00;96731.31;5037672;28;20210;-62
2023/07/31 06:35:02;;;;;;;1.92;1.80;;;;;;;16.75;100.00;96738.44;5037754;28;20212;-60
2023/07/31 06:37:30;;;;;;;2.20;2.00;;;;;;;16.81;100.00;96737.72;5042949;28;20204;-61
2023/07/31 06:39:56;;;;;;;3.17;2.03;;;;;;;16.85;100.00;96738.19;5037409;28;20211;-61
2023/07/31 06:42:22;;;;;;;2.83;2.10;;;;;;;16.93;100.00;96741.59;5036862;28;20531;-60
2023/07/31 06:44:49;;;;;;;4.72;2.13;;;;;;;16.99;100.00;96741.91;5040053;28;20628;-61
2023/07/31 06:47:16;;;;;;;3.45;2.15;;;;;;;17.13;100.00;96741.09;5046458;28;20208;-60
2023/07/31 06:49:42;;;;;;;1.70;1.60;;;;;;;17.24;100.00;96738.00;5039577;28;20283;-61
2023/07/31 06:52:09;;;;;;;2.80;1.90;;;;;;;17.36;100.00;96747.22;5046641;28;20200;-60
2023/07/31 06:54:37;;;;;;;2.97;2.10;;;;;;;17.42;100.00;96746.50;5040707;28;20265;-61
2023/07/31 06:57:04;;;;;;;2.67;2.08;;;;;;;17.56;100.00;96740.38;5045439;28;20218;-60
2023/07/31 06:59:33;;;;;;;2.83;1.90;;;;;;;17.86;100.00;96733.97;5036958;28;20266;-61
2023/07/31 07:01:59;;;;;;;3.90;2.20;;;;;;;18.13;100.00;96729.81;5037246;28;20227;-62
2023/07/31 07:04:26;;;;;;;3.83;2.10;;;;;;;18.36;100.00;96724.28;5049780;28;20231;-60
2023/07/31 07:06:52;;;;;;;2.50;1.70;;;;;;;18.47;98.33;96715.75;5036519;28;20211;-60
2023/07/31 07:09:19;;;;;;;3.65;2.00;;;;;;;18.58;97.43;96703.75;5040919;28;20211;-60
2023/07/31 07:11:47;;;;;;;1.98;1.83;;;;;;;18.66;95.06;96699.09;5044647;28;20208;-62
2023/07/31 07:14:13;;;;;;;2.40;1.90;;;;;;;18.78;94.41;96708.25;5036528;28;20543;-61
2023/07/31 07:16:41;;;;;;;1.75;1.60;;;;;;;18.86;92.29;96694.75;5047060;28;20628;-62
2023/07/31 07:19:07;;;;;;;2.55;1.65;;;;;;;18.98;91.28;96702.25;5037749;28;20710;-61
2023/07/31 07:21:33;;;;;;;2.03;1.73;;;;;;;19.15;88.96;96709.00;5042975;28;20661;-61
2023/07/31 07:24:00;;;;;;;2.47;2.17;;;;;;;19.32;86.42;96705.81;5037727;28;20207;-62
2023/07/31 07:26:26;;;;;;;2.10;1.90;;;;;;;19.48;85.78;96699.34;5035216;28;20710;-61
2023/07/31 07:28:54;;;;;;;2.97;2.25;;;;;;;19.54;85.39;96693.19;5036027;28;20254;-61
2023/07/31 07:31:21;;;;;;;3.78;2.20;;;;;;;19.64;85.65;96696.34;5035995;28;20210;-61
2023/07/31 07:33:47;;;;;;;2.78;1.80;;;;;;;19.71;87.17;96707.09;5036361;28;20204;-61
2023/07/31 07:36:13;;;;;;;2.75;1.70;;;;;;;19.74;87.54;96712.91;5055385;28;20596;-64
2023/07/31 07:38:41;;;;;;;3.92;2.10;;;;;;;19.64;84.12;96719.66;5040427;28;20212;-62
2023/07/31 07:41:07;;;;;;;3.22;2.03;;;;;;;19.81;85.20;96705.72;5047503;28;20602;-61
2023/07/31 07:43:35;;;;;;;1.90;1.80;;;;;;;19.92;85.24;96700.81;5035894;28;20211;-60
2023/07/31 07:46:03;;;;;;;2.75;2.03;;;;;;;19.98;86.00;96705.41;5035788;28;20306;-61
2023/07/31 07:48:29;;;;;;;1.73;1.63;;;;;;;20.00;87.18;96696.13;5042571;28;20207;-61
2023/07/31 07:50:56;;;;;;;1.92;1.80;;;;;;;19.94;81.92;96709.50;5042639;28;20207;-62
2023/07/31 07:53:22;;;;;;;2.45;2.00;;;;;;;20.15;82.43;96701.34;5038463;28;20203;-62
2023/07/31 07:55:49;;;;;;;2.38;1.98;;;;;;;20.32;83.50;96716.09;5037607;28;20234;-61
2023/07/31 07:58:15;;;;;;;2.95;1.90;;;;;;;20.50;81.72;96713.66;5035128;28;20223;-62
2023/07/31 08:00:41;;;;;;;4.55;2.13;;;;;;;20.47;78.83;96711.38;5035407;28;20207;-60
2023/07/31 08:03:09;;;;;;;3.67;2.20;;;;;;;20.59;78.22;96720.50;5055067;28;20206;-60
2023/07/31 08:05:36;;;;;;;3.45;2.25;;;;;;;20.80;78.98;96725.69;5055040;28;20234;-62
2023/07/31 08:08:02;;;;;;;2.13;1.77;;;;;;;20.80;75.31;96736.44;5054721;28;20211;-60
2023/07/31 08:10:29;;;;;;;4.15;2.35;;;;;;;20.83;74.56;96738.72;5055159;28;20203;-60
2023/07/31 08:12:55;;;;;;;2.33;1.80;;;;;;;20.73;75.67;96730.22;5054273;28;20627;-62
2023/07/31 08:15:21;;;;;;;2.63;2.13;;;;;;;20.51;74.89;96717.97;5054985;28;20210;-61
2023/07/31 08:17:50;;;;;;;2.15;1.83;;;;;;;20.43;75.32;96704.75;5054977;28;20222;-61
2023/07/31 08:20:18;;;;;;;3.78;1.90;;;;;;;20.35;74.87;96710.31;5055248;28;20202;-61
2023/07/31 08:22:44;;;;;;;3.30;1.90;;;;;;;20.57;75.80;96700.22;5057132;28;20284;-62
2023/07/31 08:25:11;;;;;;;2.50;2.22;;;;;;;20.82;77.56;96688.69;5068066;28;20442;-62
2023/07/31 08:27:37;;;;;;;2.40;2.20;;;;;;;20.89;76.96;96695.94;5062496;28;20202;-63
2023/07/31 08:30:05;;;;;;;2.20;1.92;;;;;;;20.85;80.34;96688.28;5044991;28;20218;-61
2023/07/31 08:32:31;;;;;;;3.67;2.30;;;;;;;20.89;77.86;96688.69;5034984;28;20244;-61
2023/07/31 08:34:57;;;;;;;2.85;2.03;;;;;;;20.61;77.25;96685.38;5034849;28;20620;-62
2023/07/31 08:37:25;;;;;;;2.28;1.90;;;;;;;20.78;76.58;96678.56;5040393;28;20210;-62
2023/07/31 08:39:52;;;;;;;4.63;2.15;;;;;;;21.00;78.79;96684.56;5034729;28;20222;-61
2023/07/31 08:42:18;;;;;;;4.10;2.55;;;;;;;20.88;77.21;96686.22;5034172;28;20237;-63
2023/07/31 08:44:45;;;;;;;2.50;1.83;;;;;;;20.77;77.55;96680.41;5034891;28;20204;-61
2023/07/31 08:47:13;;;;;;;3.47;1.90;;;;;;;20.84;78.32;96681.25;5034814;28;20223;-64
2023/07/31 08:49:40;;;;;;;2.25;2.03;;;;;;;21.08;78.38;96670.91;5034897;28;20226;-62
2023/07/31 08:52:07;;;;;;;3.63;2.20;;;;;;;21.44;80.08;96671.28;5044421;28;20226;-62
2023/07/31 08:54:35;;;;;;;2.97;2.10;;;;;;;21.45;73.72;96666.75;5038315;28;20549;-61
2023/07/31 08:57:02;;;;;;;2.70;1.55;;;;;;;21.55;74.20;96662.59;5034193;28;20215;-61
2023/07/31 08:59:30;;;;;;;2.17;1.95;;;;;;;21.77;76.81;96663.97;5034613;28;20542;-61
2023/07/31 09:01:57;;;;;;;3.42;1.95;;;;;;;21.77;76.90;96666.66;5034547;28;20224;-61
2023/07/31 09:04:24;;;;;;;3.53;2.47;;;;;;;21.62;72.51;96663.38;5034750;28;20211;-61
2023/07/31 09:06:51;;;;;;;2.50;2.30;;;;;;;21.72;75.32;96661.06;5034310;28;20215;-63
2023/07/31 09:09:17;;;;;;;2.40;2.00;;;;;;;21.64;74.88;96655.94;5034336;28;20219;-62
2023/07/31 09:11:45;;;;;;;3.58;2.08;;;;;;;21.65;75.20;96657.59;5033921;28;20199;-61
2023/07/31 09:14:11;;;;;;;2.22;2.00;;;;;;;21.73;74.76;96653.84;5034179;28;20222;-61
2023/07/31 09:16:52;;;;;;;3.55;1.90;;;;;;;21.89;71.38;96653.38;5038625;28;20636;-61
2023/07/31 09:19:26;;;;;;;1.85;1.73;;;;;;;21.85;71.47;96652.16;5035860;28;20277;-61
2023/07/31 09:21:52;;;;;;;2.63;2.17;;;;;;;21.92;71.69;96652.97;5044676;28;20242;-63
2023/07/31 09:24:26;;;;;;;3.15;1.95;;;;;;;22.18;72.20;96658.22;5051001;28;20269;-61
2023/07/31 09:26:54;;;;;;;2.03;1.73;;;;;;;22.61;71.56;96654.84;5037682;28;20235;-62
2023/07/31 09:29:21;;;;;;;3.15;2.17;;;;;;;22.72;71.29;96648.81;5038619;28;20241;-61
2023/07/31 09:31:47;;;;;;;2.63;2.22;;;;;;;22.89;69.52;96644.50;5038653;28;20211;-62
2023/07/31 09:34:14;;;;;;;1.88;1.77;;;;;;;22.63;68.12;96656.31;5038567;28;20208;-62
2023/07/31 09:36:43;;;;;;;3.30;2.22;;;;;;;22.73;70.96;96653.97;5043985;28;20273;-61
2023/07/31 09:39:11;;;;;;;2.65;2.28;;;;;;;22.64;68.08;96638.25;5038371;28;20410;-60
2023/07/31 09:41:38;;;;;;;2.55;1.90;;;;;;;22.47;69.69;96639.81;5037992;28;20255;-61
2023/07/31 09:44:06;;;;;;;2.90;1.85;;;;;;;22.15;68.19;96639.81;5038115;28;20242;-60
2023/07/31 09:46:32;;;;;;;2.00;1.90;;;;;;;22.14;69.83;96638.13;5037954;28;20211;-62
2023/07/31 09:49:06;;;;;;;4.35;2.30;;;;;;;22.30;71.44;96639.50;5038051;28;20555;-60
2023/07/31 09:51:38;;;;;;;3.08;1.80;;;;;;;22.34;69.63;96629.97;5037739;28;20229;-61
2023/07/31 09:54:04;;;;;;;3.53;1.95;;;;;;;22.36;70.02;96617.09;5038284;28;20207;-60
2023/07/31 09:56:33;;;;;;;3.83;2.17;;;;;;;22.36;72.58;96618.94;5037324;28;20218;-60
2023/07/31 09:58:59;;;;;;;2.38;1.80;;;;;;;22.31;71.19;96619.63;5037838;28;20207;-60
2023/07/31 10:01:27;;;;;;;2.92;1.73;;;;;;;22.42;67.67;96616.25;5051029;28;20204;-61
2023/07/31 10:03:53;;;;;;;3.47;2.20;;;;;;;22.36;68.44;96609.00;5038007;28;20298;-62
2023/07/31 10:06:20;;;;;;;2.60;2.40;;;;;;;22.60;68.55;96605.50;5037667;28;20212;-60
2023/07/31 10:08:48;;;;;;;2.38;2.03;;;;;;;22.92;69.91;96602.81;5037828;28;20215;-61
2023/07/31 10:11:15;;;;;;;4.78;2.13;;;;;;;23.15;68.29;96595.72;5037521;28;20207;-62
2023/07/31 10:13:42;;;;;;;2.17;1.95;;;;;;;23.22;67.04;96604.59;5037580;28;20702;-62
2023/07/31 10:16:09;;;;;;;3.95;2.20;;;;;;;23.41;65.11;96608.16;5038003;28;20218;-61
2023/07/31 10:18:37;;;;;;;3.13;2.30;;;;;;;23.25;62.22;96614.09;5044981;28;20207;-60
2023/07/31 10:21:04;;;;;;;4.57;2.42;;;;;;;23.05;64.47;96592.72;5045544;28;20207;-61
2023/07/31 10:23:30;;;;;;;3.90;2.38;;;;;;;23.27;65.45;96599.34;5039003;28;20265;-62
2023/07/31 10:25:58;;;;;;;1.92;1.80;;;;;;;23.27;63.13;96583.16;5037304;28;20235;-62
2023/07/31 10:28:25;;;;;;;3.50;2.00;;;;;;;23.42;61.89;96580.09;5037022;28;20208;-60
2023/07/31 10:30:53;;;;;;;4.03;2.40;;;;;;;23.52;64.00;96575.03;5036879;28;20250;-61
2023/07/31 10:33:20;;;;;;;2.30;1.90;;;;;;;23.71;64.89;96573.94;5052789;28;20285;-61
2023/07/31 10:35:51;;;;;;;1.80;1.70;;;;;;;23.99;69.14;96570.66;5057143;28;20238;-62
2023/07/31 10:38:17;;;;;;;2.22;2.00;;;;;;;24.23;66.23;96566.22;5056883;28;20639;-61
2023/07/31 10:40:45;;;;;;;2.88;2.08;;;;;;;24.31;60.00;96560.47;5058289;28;20218;-62
2023/07/31 10:43:24;;;;;;;3.22;1.80;;;;;;;24.40;61.01;96551.00;5049927;28;20264;-61
2023/07/31 10:45:51;;;;;;;1.92;1.83;;;;;;;24.45;58.06;96550.28;5063598;28;20230;-62
2023/07/31 10:48:18;;;;;;;2.30;2.10;;;;;;;24.70;64.55;96557.13;5059156;28;20207;-62
2023/07/31 10:50:50;;;;;;;2.33;1.92;;;;;;;24.56;59.66;96547.59;5059788;28;20206;-60
2023/07/31 10:53:24;;;;;;;2.25;2.05;;;;;;;24.77;60.13;96533.50;5058288;28;20203;-61
2023/07/31 10:55:55;;;;;;;1.95;1.73;;;;;;;24.70;58.07;96540.91;5062703;28;20212;-63
2023/07/31 10:58:21;;;;;;;3.17;2.00;;;;;;;24.70;54.50;96530.09;5058367;28;20211;-60
2023/07/31 11:00:48;;;;;;;3.53;1.77;;;;;;;24.63;54.57;96539.38;5060173;28;20225;-62
2023/07/31 11:03:16;;;;;;;2.55;1.80;;;;;;;24.68;56.11;96526.81;5057877;28;20229;-61
2023/07/31 11:05:43;;;;;;;3.45;2.63;;;;;;;24.71;53.98;96531.75;5059623;28;20245;-60
2023/07/31 11:08:22;;;;;;;2.45;2.08;;;;;;;24.55;54.93;96518.91;5048877;28;20234;-61
2023/07/31 11:10:51;;;;;;;2.35;2.15;;;;;;;24.80;57.22;96518.69;5057084;28;20203;-63
2023/07/31 11:13:17;;;;;;;2.28;2.08;;;;;;;24.50;53.96;96513.38;5061123;28;20203;-62
2023/07/31 11:15:44;;;;;;;2.75;2.00;;;;;;;24.55;56.10;96512.69;5058683;28;20221;-61
2023/07/31 11:18:11;;;;;;;3.92;2.00;;;;;;;24.47;55.82;96494.94;5057712;28;20234;-61
2023/07/31 11:20:38;;;;;;;2.05;1.92;;;;;;;24.40;56.46;96496.09;5059366;28;20210;-61
2023/07/31 11:23:07;;;;;;;2.35;2.15;;;;;;;24.41;55.60;96493.16;5059176;28;20234;-61
2023/07/31 11:25:36;;;;;;;3.17;2.42;;;;;;;24.35;56.78;96493.25;5038849;28;20231;-62
2023/07/31 11:28:06;;;;;;;2.92;2.42;;;;;;;24.38;56.74;96490.91;5037392;28;20516;-61
2023/07/31 11:30:33;;;;;;;1.85;1.73;;;;;;;24.38;57.07;96493.63;5036887;28;20226;-61